createdAt,value
2019-04-16T00:00:50.782Z,62.10
2019-04-16T00:03:20.385Z,61.60
2019-04-16T00:06:06.133Z,61.30
2019-04-16T00:08:45.143Z,61.90
2019-04-16T00:11:17.997Z,60.70
2019-04-16T00:13:48.052Z,61.50
2019-04-16T00:16:16.481Z,62.60
2019-04-16T00:18:56.672Z,63.50
2019-04-16T00:21:16.822Z,64.10
2019-04-16T00:23:52.843Z,64.60
2019-04-16T00:26:21.245Z,65.00
2019-04-16T00:28:49.688Z,64.60
2019-04-16T00:31:18.275Z,64.80
2019-04-16T00:33:46.697Z,64.90
2019-04-16T00:36:17.828Z,65.30
2019-04-16T00:38:45.485Z,65.20
2019-04-16T00:41:13.913Z,66.30
2019-04-16T00:43:44.123Z,67.00
2019-04-16T00:46:12.538Z,67.00
2019-04-16T00:48:40.953Z,68.20
2019-04-16T00:51:09.438Z,68.30
2019-04-16T00:53:39.208Z,68.60
2019-04-16T00:56:08.714Z,69.40
2019-04-16T00:58:37.233Z,69.90
2019-04-16T01:01:05.678Z,70.60
2019-04-16T01:03:34.087Z,71.20
2019-04-16T01:06:06.791Z,72.00
2019-04-16T01:08:33.437Z,72.50
2019-04-16T01:11:01.858Z,71.70
2019-04-16T01:13:30.388Z,72.50
2019-04-16T01:16:02.501Z,73.60
2019-04-16T01:18:28.937Z,74.50
2019-04-16T01:20:57.759Z,74.80
2019-04-16T01:23:26.183Z,75.10
2019-04-16T01:25:55.676Z,75.70
2019-04-16T01:28:38.761Z,76.20
2019-04-16T01:31:08.848Z,76.30
2019-04-16T01:33:43.414Z,77.10
2019-04-16T01:36:29.461Z,77.70
2019-04-16T01:39:14.976Z,78.20
2019-04-16T01:41:29.677Z,78.20
2019-04-16T01:44:17.473Z,78.80
2019-04-16T01:46:45.866Z,79.30
2019-04-16T01:49:14.269Z,79.60
2019-04-16T01:51:44.677Z,79.80
2019-04-16T01:54:12.851Z,80.10
2019-04-16T01:56:41.265Z,80.00
2019-04-16T01:59:09.694Z,80.40
2019-04-16T02:01:40.329Z,77.90
2019-04-16T02:04:08.287Z,79.30
2019-04-16T02:06:36.710Z,80.60
2019-04-16T02:09:07.050Z,80.80
2019-04-16T02:11:35.489Z,81.70
2019-04-16T02:14:04.724Z,81.50
2019-04-16T02:16:33.152Z,81.50
2019-04-16T02:19:02.416Z,82.80
2019-04-16T02:21:31.249Z,82.70
2019-04-16T02:23:59.984Z,82.70
2019-04-16T02:26:28.457Z,82.80
2019-04-16T02:28:58.919Z,82.50
2019-04-16T02:31:27.026Z,84.40
2019-04-16T02:33:55.457Z,83.70
2019-04-16T02:36:23.862Z,83.60
2019-04-16T02:38:53.116Z,85.10
2019-04-16T02:41:23.283Z,84.60
2019-04-16T02:43:52.450Z,84.10
2019-04-16T02:46:20.865Z,83.80
2019-04-16T02:48:51.363Z,83.90
2019-04-16T02:51:39.583Z,83.60
2019-04-16T02:54:14.035Z,82.90
2019-04-16T02:56:59.432Z,82.30
2019-04-16T02:59:29.534Z,82.70
2019-04-16T03:02:02.444Z,83.40
2019-04-16T03:04:41.372Z,84.10
2019-04-16T03:07:09.903Z,85.10
2019-04-16T03:09:40.189Z,86.90
2019-04-16T03:12:08.522Z,89.10
2019-04-16T03:14:37.056Z,90.20
2019-04-16T03:17:12.990Z,91.10
2019-04-16T03:19:43.008Z,91.30
2019-04-16T03:22:11.414Z,91.60
2019-04-16T03:24:40.352Z,91.90
2019-04-16T03:27:09.451Z,92.00
2019-04-16T03:29:37.852Z,92.60
2019-04-16T03:32:06.341Z,93.10
2019-04-16T03:34:34.780Z,93.30
2019-04-16T03:37:03.759Z,93.70
2019-04-16T03:39:32.257Z,93.70
2019-04-16T03:42:00.662Z,94.20
2019-04-16T03:44:29.101Z,94.50
2019-04-16T03:46:57.526Z,94.50
2019-04-16T03:49:27.667Z,94.60
2019-04-16T03:51:56.089Z,94.80
2019-04-16T03:54:24.494Z,95.00
2019-04-16T03:56:52.895Z,95.10
2019-04-16T03:59:22.016Z,95.00
2019-04-16T04:01:50.417Z,94.80
2019-04-16T04:04:18.827Z,94.60
2019-04-16T04:06:47.259Z,94.40
2019-04-16T04:09:18.577Z,94.60
2019-04-16T04:11:45.850Z,94.80
2019-04-16T04:14:14.364Z,95.10
2019-04-16T04:16:42.845Z,95.10
2019-04-16T04:19:14.112Z,95.00
2019-04-16T04:21:41.395Z,95.00
2019-04-16T04:24:09.799Z,95.40
2019-04-16T04:26:41.083Z,95.60
2019-04-16T04:29:08.365Z,95.10
2019-04-16T04:31:36.773Z,95.10
2019-04-16T04:34:05.217Z,95.50
2019-04-16T04:36:33.616Z,96.40
2019-04-16T04:39:02.078Z,97.00
2019-04-16T04:41:30.505Z,97.30
2019-04-16T04:44:03.866Z,97.40
2019-04-16T04:46:29.030Z,97.00
2019-04-16T04:49:00.197Z,96.90
2019-04-16T04:51:27.825Z,96.70
2019-04-16T04:53:56.230Z,97.00
2019-04-16T04:56:27.744Z,96.20
2019-04-16T04:58:54.830Z,95.80
2019-04-16T05:01:23.284Z,95.30
2019-04-16T05:04:02.574Z,95.20
2019-04-16T05:06:32.881Z,95.30
2019-04-16T05:09:01.485Z,95.40
2019-04-16T05:11:29.985Z,94.90
2019-04-16T05:13:58.395Z,94.70
2019-04-16T05:16:26.794Z,95.00
2019-04-16T05:18:55.241Z,95.20
2019-04-16T05:21:23.655Z,95.70
2019-04-16T05:23:57.196Z,95.70
2019-04-16T05:26:22.201Z,95.90
2019-04-16T05:28:50.793Z,96.20
2019-04-16T05:31:24.307Z,96.20
2019-04-16T05:33:49.329Z,95.30
2019-04-16T05:36:20.725Z,94.80
2019-04-16T05:38:47.890Z,94.00
2019-04-16T05:41:20.362Z,92.00
2019-04-16T05:43:46.741Z,90.90
2019-04-16T05:46:15.296Z,90.50
2019-04-16T05:48:43.980Z,90.60
2019-04-16T05:51:12.591Z,91.70
2019-04-16T05:53:42.693Z,93.00
2019-04-16T05:56:15.442Z,94.00
2019-04-16T05:58:43.858Z,94.20
2019-04-16T06:01:30.345Z,92.70
2019-04-16T06:03:58.755Z,90.90
2019-04-16T06:06:28.779Z,90.40
2019-04-16T06:08:57.313Z,90.20
2019-04-16T06:11:29.762Z,89.00
2019-04-16T06:14:00.620Z,89.00
2019-04-16T06:16:36.591Z,88.50
2019-04-16T06:19:11.447Z,85.90
2019-04-16T06:21:57.786Z,85.40
2019-04-16T06:24:40.177Z,85.00
2019-04-16T06:27:12.738Z,84.30
2019-04-16T06:29:51.790Z,83.80
2019-04-16T06:32:36.945Z,83.20
2019-04-16T06:35:07.153Z,81.90
2019-04-16T06:37:53.429Z,81.10
2019-04-16T06:40:23.773Z,79.00
2019-04-16T06:42:54.099Z,77.80
2019-04-16T06:45:25.407Z,77.30
2019-04-16T06:47:55.457Z,76.30
2019-04-16T06:50:40.911Z,76.30
2019-04-16T06:53:26.173Z,76.00
2019-04-16T06:56:02.299Z,76.40
2019-04-16T06:58:49.908Z,75.70
2019-04-16T07:01:10.128Z,76.00
2019-04-16T07:03:43.105Z,74.80
2019-04-16T07:06:22.085Z,73.20
2019-04-16T07:08:58.191Z,73.30
2019-04-16T07:11:28.208Z,71.20
2019-04-16T07:13:56.622Z,70.40
2019-04-16T07:16:28.144Z,69.20
2019-04-16T07:18:55.743Z,68.00
2019-04-16T07:21:24.154Z,67.60
2019-04-16T07:23:56.821Z,67.00
2019-04-16T07:26:22.884Z,66.10
2019-04-16T07:28:58.990Z,66.50
2019-04-16T07:31:34.493Z,66.70
2019-04-16T07:34:04.710Z,67.10
2019-04-16T07:36:34.872Z,67.00
2019-04-16T07:39:06.518Z,66.80
2019-04-16T07:41:48.686Z,66.80
2019-04-16T07:44:22.150Z,65.80
2019-04-16T07:47:06.997Z,65.00
2019-04-16T07:49:43.346Z,64.10
2019-04-16T07:52:13.398Z,62.80
2019-04-16T07:54:49.145Z,62.30
2019-04-16T07:57:17.632Z,62.60
2019-04-16T07:59:46.075Z,62.40
2019-04-16T08:02:17.399Z,62.20
2019-04-16T08:04:44.733Z,62.40
2019-04-16T08:07:13.138Z,61.00
2019-04-16T08:09:41.625Z,59.20
2019-04-16T08:12:22.312Z,58.40
2019-04-16T08:14:40.740Z,57.70
2019-04-16T08:17:09.143Z,57.00
2019-04-16T08:19:37.783Z,56.20
2019-04-16T08:22:06.563Z,55.00
2019-04-16T08:24:36.747Z,54.60
2019-04-16T08:27:05.211Z,54.90
2019-04-16T08:29:33.612Z,54.60
2019-04-16T08:32:02.027Z,52.80
2019-04-16T08:34:30.466Z,51.90
2019-04-16T08:36:58.906Z,52.20
2019-04-16T08:39:27.370Z,51.50
2019-04-16T08:41:55.802Z,52.00
2019-04-16T08:44:24.221Z,51.30
2019-04-16T08:46:52.653Z,49.90
2019-04-16T08:49:22.477Z,49.70
2019-04-16T08:51:51.210Z,49.40
2019-04-16T08:54:20.377Z,49.20
2019-04-16T08:56:48.786Z,48.20
2019-04-16T08:59:17.193Z,47.60
2019-04-16T09:01:45.782Z,46.80
2019-04-16T09:04:14.195Z,46.50
2019-04-16T09:06:46.088Z,46.20
2019-04-16T09:09:30.931Z,46.20
2019-04-16T09:12:01.445Z,45.60
2019-04-16T09:14:31.509Z,45.50
2019-04-16T09:17:10.949Z,44.40
2019-04-16T09:19:41.731Z,44.60
2019-04-16T09:22:15.739Z,43.30
2019-04-16T09:24:44.383Z,43.50
2019-04-16T09:27:28.614Z,42.90
2019-04-16T09:30:16.848Z,42.60
2019-04-16T09:32:48.487Z,42.10
2019-04-16T09:35:21.609Z,42.40
2019-04-16T09:37:57.433Z,41.10
2019-04-16T09:40:44.269Z,41.00
2019-04-16T09:43:17.251Z,40.90
2019-04-16T09:45:44.455Z,41.00
2019-04-16T09:48:13.225Z,40.50
2019-04-16T09:50:46.536Z,40.30
2019-04-16T09:53:12.320Z,39.70
2019-04-16T09:55:40.839Z,40.10
2019-04-16T09:58:16.805Z,39.90
2019-04-16T10:00:47.170Z,39.80
2019-04-16T10:03:32.597Z,39.10
2019-04-16T10:06:00.999Z,38.80
2019-04-16T10:08:29.589Z,38.30
2019-04-16T10:11:02.744Z,38.70
2019-04-16T10:13:35.693Z,38.40
2019-04-16T10:16:01.093Z,38.00
2019-04-16T10:18:34.403Z,38.30
2019-04-16T10:20:59.648Z,37.40
2019-04-16T10:23:32.488Z,37.30
2019-04-16T10:26:00.971Z,37.00
2019-04-16T10:28:34.011Z,37.00
2019-04-16T10:31:01.235Z,37.20
2019-04-16T10:33:29.706Z,36.70
2019-04-16T10:36:01.036Z,36.60
2019-04-16T10:38:33.552Z,37.10
2019-04-16T10:41:03.603Z,36.40
2019-04-16T10:43:49.974Z,36.40
2019-04-16T10:46:23.146Z,37.60
2019-04-16T10:48:53.485Z,38.00
2019-04-16T10:51:40.525Z,37.50
2019-04-16T10:54:25.799Z,36.60
2019-04-16T10:57:05.223Z,36.70
2019-04-16T10:59:53.705Z,36.00
2019-04-16T11:02:39.724Z,37.60
2019-04-16T11:05:19.254Z,37.40
2019-04-16T11:07:47.864Z,38.30
2019-04-16T11:10:16.585Z,38.80
2019-04-16T11:12:45.093Z,39.00
2019-04-16T11:15:15.898Z,39.60
2019-04-16T11:17:44.392Z,38.30
2019-04-16T11:20:13.049Z,38.40
2019-04-16T11:22:41.496Z,37.40
2019-04-16T11:25:10.003Z,37.80
2019-04-16T11:27:39.501Z,37.60
2019-04-16T11:30:12.094Z,36.50
2019-04-16T11:32:40.535Z,37.20
2019-04-16T11:35:09.390Z,36.00
2019-04-16T11:37:37.827Z,35.30
2019-04-16T11:40:06.521Z,35.30
2019-04-16T11:42:34.987Z,34.70
2019-04-16T11:45:05.603Z,35.50
2019-04-16T11:47:34.903Z,35.20
2019-04-16T11:50:05.148Z,33.80
2019-04-16T11:52:33.668Z,34.20
2019-04-16T11:55:03.822Z,33.60
2019-04-16T11:57:33.252Z,33.80
2019-04-16T12:00:07.647Z,34.40
2019-04-16T12:02:41.559Z,34.00
2019-04-16T12:05:17.699Z,33.70
2019-04-16T12:07:51.374Z,33.60
2019-04-16T12:10:27.451Z,33.80
2019-04-16T12:13:13.810Z,33.20
2019-04-16T12:15:46.584Z,33.60
2019-04-16T12:18:22.917Z,32.50
2019-04-16T12:20:56.153Z,32.60
2019-04-16T12:23:42.901Z,31.30
2019-04-16T12:26:18.968Z,31.40
2019-04-16T12:28:59.244Z,30.40
2019-04-16T12:31:47.306Z,30.00
2019-04-16T12:34:20.428Z,30.10
2019-04-16T12:36:50.541Z,30.00
2019-04-16T12:39:37.367Z,29.90
2019-04-16T12:42:16.520Z,29.20
2019-04-16T12:44:52.611Z,28.80
2019-04-16T12:47:25.818Z,28.70
2019-04-16T12:50:08.328Z,28.40
2019-04-16T12:52:55.820Z,28.20
2019-04-16T12:55:31.355Z,28.10
2019-04-16T12:58:04.402Z,27.90
2019-04-16T13:00:52.544Z,27.50
2019-04-16T13:03:28.607Z,27.00
2019-04-16T13:06:15.019Z,26.70
2019-04-16T13:09:01.255Z,26.60
2019-04-16T13:11:36.808Z,26.80
2019-04-16T13:14:15.900Z,27.30
2019-04-16T13:16:57.907Z,27.10
2019-04-16T13:19:40.059Z,26.80
2019-04-16T13:22:10.118Z,26.70
2019-04-16T13:24:43.071Z,26.70
2019-04-16T13:27:13.126Z,27.20
2019-04-16T13:29:41.542Z,26.70
2019-04-16T13:32:10.017Z,26.40
2019-04-16T13:34:38.428Z,26.00
2019-04-16T13:37:06.921Z,25.60
2019-04-16T13:39:40.145Z,25.10
2019-04-16T13:42:07.730Z,24.50
2019-04-16T13:47:03.820Z,24.60
2019-04-16T13:49:42.811Z,25.10
2019-04-16T13:52:11.389Z,26.10
2019-04-16T13:54:41.504Z,27.50
2019-04-16T13:57:11.736Z,27.80
2019-04-16T14:00:04.370Z,27.60
2019-04-16T14:02:31.727Z,27.60
2019-04-16T14:05:04.278Z,26.60
2019-04-16T14:07:30.269Z,25.50
2019-04-16T14:09:59.142Z,25.30
2019-04-16T14:12:41.173Z,24.80
2019-04-16T14:14:57.813Z,25.50
2019-04-16T14:17:28.026Z,26.30
2019-04-16T14:19:56.436Z,26.40
2019-04-16T14:22:25.198Z,26.90
2019-04-16T14:24:53.646Z,26.10
2019-04-16T14:27:22.147Z,25.40
2019-04-16T14:29:50.554Z,25.30
2019-04-16T14:32:20.069Z,26.10
2019-04-16T14:34:56.183Z,26.70
2019-04-16T14:37:25.191Z,27.10
2019-04-16T14:39:55.448Z,27.30
2019-04-16T14:42:23.862Z,27.70
2019-04-16T14:44:59.907Z,27.80
2019-04-16T14:47:29.897Z,28.00
2019-04-16T14:49:58.519Z,27.30
2019-04-16T14:52:26.924Z,27.50
2019-04-16T14:55:02.441Z,28.40
2019-04-16T14:57:30.870Z,29.80
2019-04-16T15:00:17.682Z,31.20
2019-04-16T15:02:53.574Z,32.60
2019-04-16T15:05:26.580Z,33.20
2019-04-16T15:07:56.622Z,34.20
2019-04-16T15:10:29.469Z,35.20
2019-04-16T15:13:02.763Z,35.20
2019-04-16T15:15:38.894Z,35.80
2019-04-16T15:18:27.457Z,36.80
2019-04-16T15:21:13.815Z,36.80
2019-04-16T15:23:46.674Z,36.20
2019-04-16T15:26:29.035Z,36.40
2019-04-16T15:29:01.661Z,36.00
2019-04-16T15:31:43.661Z,35.30
2019-04-16T15:34:19.762Z,35.80
2019-04-16T15:36:51.885Z,36.80
2019-04-16T15:39:21.561Z,38.10
2019-04-16T15:42:00.993Z,40.40
2019-04-16T15:44:32.158Z,41.60
2019-04-16T15:47:13.367Z,43.00
2019-04-16T15:49:56.057Z,44.20
2019-04-16T15:52:46.464Z,45.80
2019-04-16T15:55:28.650Z,46.30
2019-04-16T15:58:04.609Z,46.40
2019-04-16T16:00:38.935Z,46.40
2019-04-16T16:03:25.344Z,45.70
2019-04-16T16:05:55.447Z,46.00
2019-04-16T16:08:35.834Z,46.70
2019-04-16T16:11:18.725Z,45.80
2019-04-16T16:13:47.141Z,46.20
2019-04-16T16:16:18.055Z,46.60
2019-04-16T16:18:45.715Z,47.10
2019-04-16T16:21:14.118Z,48.00
2019-04-16T16:23:42.566Z,48.60
2019-04-16T16:26:10.988Z,48.70
2019-04-16T16:28:39.374Z,48.40
2019-04-16T16:31:07.966Z,48.30
2019-04-16T16:33:36.371Z,49.50
2019-04-16T16:36:04.863Z,50.60
2019-04-16T16:38:33.418Z,51.80
2019-04-16T16:41:01.829Z,53.90
2019-04-16T16:43:30.256Z,55.80
2019-04-16T16:46:10.275Z,57.10
2019-04-16T16:48:38.779Z,57.80
2019-04-16T16:51:07.287Z,59.50
2019-04-16T16:53:39.843Z,60.30
2019-04-16T16:56:12.045Z,60.50
2019-04-16T16:58:47.523Z,61.40
2019-04-16T17:01:26.711Z,61.40
2019-04-16T17:03:56.944Z,62.00
2019-04-16T17:06:26.986Z,62.00
2019-04-16T17:08:55.381Z,60.80
2019-04-16T17:11:23.825Z,60.90
2019-04-16T17:13:52.289Z,60.80
2019-04-16T17:16:20.746Z,60.80
2019-04-16T17:18:49.444Z,61.20
2019-04-16T17:21:17.844Z,62.10
2019-04-16T17:23:46.409Z,62.10
2019-04-16T17:26:16.080Z,63.10
2019-04-16T17:28:44.977Z,64.10
2019-04-16T17:31:14.140Z,64.10
2019-04-16T17:33:42.586Z,64.10
2019-04-16T17:36:10.992Z,64.10
2019-04-16T17:38:39.389Z,64.20
2019-04-16T17:41:09.667Z,64.50
2019-04-16T17:43:42.686Z,65.00
2019-04-16T17:46:28.746Z,65.30
2019-04-16T17:48:58.778Z,66.50
2019-04-16T17:51:28.839Z,66.80
2019-04-16T17:54:01.662Z,66.90
2019-04-16T17:56:31.713Z,67.30
2019-04-16T17:59:01.745Z,67.00
2019-04-16T18:01:44.513Z,67.70
2019-04-16T18:04:14.600Z,68.50
2019-04-16T18:07:01.073Z,67.90
2019-04-16T18:09:47.461Z,68.40
2019-04-16T18:12:26.285Z,68.90
2019-04-16T18:14:59.306Z,71.10
2019-04-16T18:17:47.880Z,69.30
2019-04-16T18:20:26.926Z,69.40
2019-04-16T18:23:06.086Z,69.20
2019-04-16T18:25:56.565Z,69.10
2019-04-16T18:28:35.346Z,69.20
2019-04-16T18:31:23.357Z,69.60
2019-04-16T18:33:56.460Z,69.30
2019-04-16T18:36:26.490Z,69.60
2019-04-16T18:39:03.767Z,70.80
2019-04-16T18:41:31.054Z,70.00
2019-04-16T18:44:13.157Z,70.70
2019-04-16T18:47:04.033Z,70.90
2019-04-16T18:49:31.019Z,71.50
2019-04-16T18:51:59.534Z,71.40
2019-04-16T18:54:27.968Z,71.60
2019-04-16T18:56:56.440Z,72.20
2019-04-16T18:59:25.023Z,71.50
2019-04-16T19:01:55.072Z,72.10
2019-04-16T19:04:23.514Z,71.50
2019-04-16T19:06:52.544Z,71.50
2019-04-16T19:09:21.218Z,72.00
2019-04-16T19:11:49.834Z,72.40
2019-04-16T19:14:18.240Z,72.70
2019-04-16T19:16:47.566Z,73.10
2019-04-16T19:19:15.989Z,73.60
2019-04-16T19:21:44.423Z,74.10
2019-04-16T19:24:12.824Z,74.20
2019-04-16T19:26:41.479Z,74.40
2019-04-16T19:29:13.568Z,73.40
2019-04-16T19:31:40.004Z,73.90
2019-04-16T19:34:10.178Z,73.70
2019-04-16T19:36:38.724Z,74.20
2019-04-16T19:39:10.442Z,73.80
2019-04-16T19:41:41.039Z,74.20
2019-04-16T19:44:08.348Z,73.50
2019-04-16T19:46:36.833Z,73.40
2019-04-16T19:49:05.251Z,73.60
2019-04-16T19:51:33.893Z,73.60
2019-04-16T19:54:02.403Z,73.30
2019-04-16T19:56:33.424Z,74.20
2019-04-16T19:59:01.824Z,74.30
2019-04-16T20:01:30.222Z,74.60
2019-04-16T20:03:58.632Z,75.20
2019-04-16T20:06:27.067Z,75.50
2019-04-16T20:08:55.893Z,75.70
2019-04-16T20:11:24.371Z,75.90
2019-04-16T20:13:52.803Z,76.20
2019-04-16T20:16:21.265Z,76.50
2019-04-16T20:18:51.246Z,76.60
2019-04-16T20:21:20.035Z,76.60
2019-04-16T20:23:48.530Z,77.50
2019-04-16T20:26:16.944Z,77.10
2019-04-16T20:28:48.474Z,77.20
2019-04-16T20:31:15.738Z,77.50
2019-04-16T20:33:44.147Z,77.70
2019-04-16T20:36:12.582Z,77.90
2019-04-16T20:38:40.992Z,78.00
2019-04-16T20:41:09.441Z,78.20
2019-04-16T20:43:37.866Z,78.50
2019-04-16T20:46:06.285Z,78.50
2019-04-16T20:48:34.685Z,78.80
2019-04-16T20:51:03.118Z,78.90
2019-04-16T20:53:31.528Z,79.30
2019-04-16T20:55:59.951Z,79.70
2019-04-16T20:58:31.491Z,79.80
2019-04-16T21:01:00.375Z,80.10
2019-04-16T21:03:30.966Z,80.30
2019-04-16T21:06:00.072Z,80.70
2019-04-16T21:08:28.646Z,80.90
2019-04-16T21:10:59.493Z,81.40
2019-04-16T21:13:27.226Z,81.60
2019-04-16T21:15:57.193Z,81.70
2019-04-16T21:18:25.759Z,82.30
2019-04-16T21:20:54.404Z,82.70
2019-04-16T21:23:22.794Z,82.70
2019-04-16T21:25:51.209Z,82.90
2019-04-16T21:28:30.042Z,83.20
2019-04-16T21:31:03.035Z,83.10
2019-04-16T21:33:36.049Z,83.30
2019-04-16T21:36:11.938Z,83.40
2019-04-16T21:38:45.978Z,83.70
2019-04-16T21:41:14.511Z,83.90
2019-04-16T21:43:43.436Z,83.80
2019-04-16T21:46:11.833Z,83.70
2019-04-16T21:48:40.239Z,83.70
2019-04-16T21:51:08.699Z,83.90
2019-04-16T21:53:37.122Z,83.80
2019-04-16T21:56:07.836Z,83.70
2019-04-16T21:58:35.766Z,83.90
2019-04-16T22:01:18.037Z,83.90
2019-04-16T22:03:48.119Z,84.00
2019-04-16T22:06:19.745Z,84.30
2019-04-16T22:08:46.709Z,84.40
2019-04-16T22:11:15.117Z,84.80
2019-04-16T22:13:43.529Z,85.10
2019-04-16T22:16:11.982Z,86.20
2019-04-16T22:18:41.524Z,86.00
2019-04-16T22:21:11.649Z,86.10
2019-04-16T22:23:40.185Z,86.20
2019-04-16T22:26:10.844Z,86.30
2019-04-16T22:28:38.796Z,86.60
2019-04-16T22:31:08.944Z,86.90
2019-04-16T22:33:37.350Z,87.20
2019-04-16T22:36:05.756Z,87.60
2019-04-16T22:38:35.559Z,87.70
2019-04-16T22:41:05.607Z,87.90
2019-04-16T22:43:51.710Z,88.20
2019-04-16T22:46:24.769Z,88.50
2019-04-16T22:48:57.406Z,88.70
2019-04-16T22:51:26.205Z,88.90
2019-04-16T22:53:54.883Z,89.40
2019-04-16T22:56:28.210Z,89.70
2019-04-16T22:58:55.243Z,89.90
2019-04-16T23:01:25.295Z,89.60
2019-04-16T23:03:54.543Z,89.70
2019-04-16T23:06:23.003Z,89.90
2019-04-16T23:08:51.401Z,90.00
2019-04-16T23:11:23.234Z,90.00
2019-04-16T23:13:49.992Z,89.60
2019-04-16T23:16:18.391Z,89.00
2019-04-16T23:18:49.372Z,89.00
2019-04-16T23:21:16.959Z,89.00
2019-04-16T23:23:47.700Z,89.50
2019-04-16T23:26:15.527Z,89.50
2019-04-16T23:28:43.931Z,89.60
2019-04-16T23:31:12.338Z,90.00
2019-04-16T23:33:40.762Z,90.10
2019-04-16T23:36:09.166Z,90.00
2019-04-16T23:38:37.563Z,90.20
2019-04-16T23:41:06.003Z,90.50
2019-04-16T23:43:53.566Z,90.80
2019-04-16T23:46:39.782Z,90.90
2019-04-16T23:49:09.814Z,91.20
2019-04-16T23:51:39.848Z,91.60
2019-04-16T23:54:12.877Z,92.00
2019-04-16T23:56:42.957Z,92.30
2019-04-16T23:59:13.415Z,92.80
